createdAt,value
2022-08-20T00:01:58.173Z,2.58
2022-08-20T00:04:45.953Z,2.72
2022-08-20T00:07:33.457Z,2.38
2022-08-20T00:10:22.790Z,2.45
2022-08-20T00:13:15.549Z,3.13
2022-08-20T00:16:07.221Z,3.22
2022-08-20T00:18:54.649Z,3.00
2022-08-20T00:21:42.127Z,3.00
2022-08-20T00:24:29.886Z,2.70
2022-08-20T00:27:17.265Z,3.40
2022-08-20T00:30:08.450Z,2.83
2022-08-20T00:33:01.549Z,3.38
2022-08-20T00:35:52.666Z,2.92
2022-08-20T00:38:43.420Z,3.03
2022-08-20T00:41:31.098Z,2.95
2022-08-20T00:44:22.566Z,3.00
2022-08-20T00:47:11.201Z,3.40
2022-08-20T00:49:58.700Z,2.80
2022-08-20T00:52:50.919Z,2.85
2022-08-20T00:55:38.902Z,3.08
2022-08-20T00:58:28.884Z,2.97
2022-08-20T01:01:16.794Z,3.20
2022-08-20T01:04:05.471Z,3.60
2022-08-20T01:06:55.988Z,3.38
2022-08-20T01:09:57.952Z,3.35
2022-08-20T01:12:48.092Z,3.15
2022-08-20T01:15:43.947Z,2.90
2022-08-20T01:18:31.620Z,3.33
2022-08-20T01:21:33.534Z,2.88
2022-08-20T01:24:28.440Z,2.92
2022-08-20T01:27:16.112Z,2.97
2022-08-20T01:30:06.810Z,3.20
2022-08-20T01:32:55.270Z,2.83
2022-08-20T01:35:43.360Z,3.60
2022-08-20T01:38:30.854Z,3.00
2022-08-20T01:41:36.770Z,3.25
2022-08-20T01:44:25.414Z,3.60
2022-08-20T01:47:17.450Z,3.33
2022-08-20T01:50:17.937Z,3.40
2022-08-20T01:53:43.119Z,3.28
2022-08-20T01:56:32.074Z,3.60
2022-08-20T01:59:19.620Z,3.20
2022-08-20T02:02:08.406Z,3.28
2022-08-20T02:04:58.614Z,3.47
2022-08-20T02:07:46.402Z,3.83
2022-08-20T02:10:33.878Z,3.50
2022-08-20T02:13:21.910Z,3.53
2022-08-20T02:16:09.417Z,3.15
2022-08-20T02:19:01.888Z,3.50
2022-08-20T02:21:55.441Z,4.07
2022-08-20T02:24:43.949Z,4.00
2022-08-20T02:27:31.791Z,3.30
2022-08-20T02:30:27.766Z,3.95
2022-08-20T02:33:17.898Z,4.18
2022-08-20T02:36:06.071Z,3.63
2022-08-20T02:38:54.816Z,3.78
2022-08-20T02:41:42.274Z,3.92
2022-08-20T02:44:30.546Z,4.57
2022-08-20T02:47:17.967Z,4.20
2022-08-20T02:50:08.089Z,4.10
2022-08-20T02:52:55.876Z,4.38
2022-08-20T02:55:43.663Z,3.78
2022-08-20T02:58:31.353Z,4.43
2022-08-20T03:01:19.079Z,4.82
2022-08-20T03:04:06.485Z,4.50
2022-08-20T03:06:54.045Z,4.85
2022-08-20T03:09:41.822Z,4.07
2022-08-20T03:12:29.410Z,4.82
2022-08-20T03:15:17.445Z,5.20
2022-08-20T03:18:05.344Z,5.10
2022-08-20T03:20:52.838Z,4.82
2022-08-20T03:23:43.276Z,5.18
2022-08-20T03:26:30.917Z,4.80
2022-08-20T03:29:19.429Z,4.13
2022-08-20T03:32:39.107Z,4.90
2022-08-20T03:46:26.830Z,4.63
2022-08-20T03:49:14.736Z,4.00
2022-08-20T03:52:03.882Z,4.47
2022-08-20T03:54:51.352Z,4.82
2022-08-20T03:57:48.737Z,4.07
2022-08-20T04:00:41.431Z,4.60
2022-08-20T04:03:28.858Z,5.38
2022-08-20T04:06:16.537Z,6.38
2022-08-20T04:09:04.538Z,6.63
2022-08-20T04:11:54.238Z,6.28
2022-08-20T04:14:41.666Z,6.10
2022-08-20T04:17:28.949Z,6.13
2022-08-20T04:20:22.684Z,6.63
2022-08-20T04:30:23.346Z,6.25
2022-08-20T04:33:11.830Z,7.15
2022-08-20T04:36:05.283Z,8.15
2022-08-20T04:38:59.207Z,8.57
2022-08-20T04:42:10.231Z,7.97
2022-08-20T04:45:00.841Z,6.88
2022-08-20T04:47:49.780Z,6.95
2022-08-20T04:50:39.061Z,5.82
2022-08-20T04:53:28.004Z,6.22
2022-08-20T04:56:15.359Z,6.32
2022-08-20T04:59:03.175Z,6.63
2022-08-20T05:01:50.461Z,7.00
2022-08-20T05:04:38.145Z,7.50
2022-08-20T05:07:26.063Z,7.55
2022-08-20T05:10:15.479Z,7.55
2022-08-20T05:15:51.018Z,8.88
2022-08-20T05:18:38.362Z,9.65
2022-08-20T05:21:25.654Z,9.23
2022-08-20T05:24:12.989Z,9.88
2022-08-20T05:27:01.272Z,9.43
2022-08-20T05:29:48.582Z,10.57
2022-08-20T05:32:44.730Z,10.55
2022-08-20T05:35:38.474Z,13.18
2022-08-20T05:38:28.865Z,13.25
2022-08-20T05:41:28.848Z,15.45
2022-08-20T05:44:18.668Z,16.52
2022-08-20T05:47:06.133Z,16.77
2022-08-20T05:49:54.011Z,16.08
2022-08-20T05:52:42.256Z,17.05
2022-08-20T05:55:32.602Z,17.33
2022-08-20T05:58:26.656Z,15.85
2022-08-20T06:01:14.042Z,17.52
2022-08-20T06:04:20.463Z,16.58
2022-08-20T06:07:07.839Z,17.27
2022-08-20T06:09:55.145Z,18.35
2022-08-20T06:12:44.414Z,18.33
2022-08-20T06:15:33.857Z,16.63
2022-08-20T06:18:28.650Z,18.25
2022-08-20T06:21:16.126Z,16.25
2022-08-20T06:24:03.894Z,16.70
2022-08-20T06:26:59.496Z,17.60
2022-08-20T06:29:47.494Z,16.73
2022-08-20T06:32:35.181Z,17.25
2022-08-20T06:35:23.072Z,15.85
2022-08-20T06:38:12.772Z,15.55
2022-08-20T06:41:00.101Z,14.23
2022-08-20T06:43:47.370Z,13.85
2022-08-20T06:46:36.177Z,13.63
2022-08-20T06:49:23.543Z,12.75
2022-08-20T06:52:11.633Z,12.68
2022-08-20T06:55:00.027Z,12.15
2022-08-20T06:57:48.342Z,12.20
2022-08-20T07:00:38.076Z,11.88
2022-08-20T07:03:26.118Z,12.38
2022-08-20T07:06:14.373Z,12.70
2022-08-20T07:09:01.695Z,12.25
2022-08-20T07:11:49.205Z,12.38
2022-08-20T07:14:36.746Z,12.20
2022-08-20T07:17:24.961Z,11.83
2022-08-20T07:20:15.331Z,11.18
2022-08-20T07:23:02.885Z,12.07
2022-08-20T07:25:50.633Z,11.15
2022-08-20T07:28:37.954Z,10.73
2022-08-20T07:31:43.660Z,12.13
2022-08-20T07:34:35.357Z,11.52
2022-08-20T07:37:23.787Z,10.40
2022-08-20T07:40:14.331Z,11.10
2022-08-20T07:43:02.904Z,11.05
2022-08-20T07:45:58.388Z,10.77
2022-08-20T07:48:49.489Z,10.70
2022-08-20T07:51:37.331Z,10.90
2022-08-20T07:54:24.590Z,11.50
2022-08-20T07:57:12.925Z,10.52
2022-08-20T08:00:00.303Z,9.68
2022-08-20T08:02:47.651Z,9.00
2022-08-20T08:05:38.295Z,7.65
2022-08-20T08:08:28.913Z,8.70
2022-08-20T08:11:16.989Z,9.73
2022-08-20T08:14:06.566Z,9.88
2022-08-20T08:16:57.188Z,8.88
2022-08-20T08:19:49.017Z,10.00
2022-08-20T08:22:36.341Z,11.68
2022-08-20T08:25:23.667Z,10.07
2022-08-20T08:28:11.711Z,10.35
2022-08-20T08:30:59.020Z,9.77
2022-08-20T08:33:46.383Z,9.10
2022-08-20T08:36:33.674Z,9.15
2022-08-20T08:39:22.127Z,8.57
2022-08-20T08:42:34.174Z,8.85
2022-08-20T08:45:22.330Z,9.13
2022-08-20T08:48:18.266Z,11.15
2022-08-20T08:51:11.823Z,10.32
2022-08-20T08:54:04.588Z,10.75
2022-08-20T08:56:54.330Z,11.00
2022-08-20T08:59:58.347Z,10.85
2022-08-20T09:03:09.661Z,11.18
2022-08-20T09:06:04.968Z,10.13
2022-08-20T09:09:04.525Z,9.40
2022-08-20T09:12:03.213Z,9.82
2022-08-20T09:14:51.408Z,9.63
2022-08-20T09:17:38.656Z,9.40
2022-08-20T09:20:27.142Z,10.02
2022-08-20T09:23:14.650Z,8.65
2022-08-20T09:26:01.957Z,8.50
2022-08-20T09:28:52.312Z,7.78
2022-08-20T09:31:39.744Z,8.25
2022-08-20T09:34:27.105Z,8.90
2022-08-20T09:37:15.494Z,8.98
2022-08-20T09:40:04.979Z,8.68
2022-08-20T09:42:52.341Z,8.40
2022-08-20T09:45:39.656Z,8.07
2022-08-20T09:48:29.602Z,7.78
2022-08-20T09:51:19.409Z,8.07
2022-08-20T09:54:06.852Z,8.13
2022-08-20T09:56:54.126Z,9.15
2022-08-20T09:59:41.685Z,9.07
2022-08-20T10:02:28.985Z,9.77
2022-08-20T10:05:16.393Z,8.95
2022-08-20T10:08:08.638Z,9.20
2022-08-20T10:10:55.951Z,9.10
2022-08-20T10:13:43.240Z,8.50
2022-08-20T10:16:30.801Z,8.70
2022-08-20T10:19:18.086Z,9.32
2022-08-20T10:22:06.111Z,9.35
2022-08-20T10:24:53.464Z,9.05
2022-08-20T10:27:40.722Z,8.95
2022-08-20T10:30:28.120Z,9.90
2022-08-20T10:33:15.733Z,8.68
2022-08-20T10:36:10.115Z,9.18
2022-08-20T10:38:57.785Z,9.20
2022-08-20T10:41:45.029Z,8.05
2022-08-20T10:44:32.421Z,6.93
2022-08-20T10:47:28.476Z,7.40
2022-08-20T10:50:19.784Z,7.43
2022-08-20T10:53:07.063Z,7.15
2022-08-20T10:55:55.517Z,7.35
2022-08-20T10:58:43.045Z,7.18
2022-08-20T11:01:36.159Z,6.95
2022-08-20T11:04:24.096Z,6.97
2022-08-20T11:07:55.484Z,6.20
2022-08-20T11:10:34.054Z,7.60
2022-08-20T11:13:21.987Z,6.70
2022-08-20T11:16:09.293Z,5.95
2022-08-20T11:18:57.035Z,6.25
2022-08-20T11:21:44.346Z,6.95
2022-08-20T11:24:31.589Z,5.82
2022-08-20T11:27:26.512Z,6.78
2022-08-20T11:30:21.086Z,6.28
2022-08-20T11:33:08.436Z,6.53
2022-08-20T11:35:55.892Z,6.15
2022-08-20T11:38:43.168Z,6.25
2022-08-20T11:41:30.484Z,6.50
2022-08-20T11:44:21.081Z,6.22
2022-08-20T11:47:20.827Z,5.85
2022-08-20T11:53:01.137Z,4.93
2022-08-20T11:55:49.524Z,5.22
2022-08-20T11:58:36.957Z,4.90
2022-08-20T12:01:24.562Z,6.07
2022-08-20T12:04:11.852Z,5.72
2022-08-20T12:07:08.127Z,6.25
2022-08-20T12:09:55.731Z,5.30
2022-08-20T12:12:43.030Z,7.22
2022-08-20T12:15:30.514Z,7.18
2022-08-20T12:18:17.814Z,5.95
2022-08-20T12:21:05.222Z,6.40
2022-08-20T12:23:52.661Z,8.00
2022-08-20T12:26:39.966Z,6.75
2022-08-20T12:29:27.705Z,6.35
2022-08-20T12:32:15.140Z,7.47
2022-08-20T12:35:02.497Z,6.53
2022-08-20T12:37:50.533Z,6.57
2022-08-20T12:40:38.024Z,6.72
2022-08-20T12:43:25.569Z,7.28
2022-08-20T12:46:12.922Z,6.63
2022-08-20T12:49:00.170Z,6.80
2022-08-20T12:51:47.421Z,6.15
2022-08-20T12:54:35.477Z,6.97
2022-08-20T12:57:34.388Z,6.97
2022-08-20T13:00:29.357Z,6.10
2022-08-20T13:03:17.302Z,6.40
2022-08-20T13:06:04.679Z,6.75
2022-08-20T13:08:51.957Z,6.70
2022-08-20T13:11:39.258Z,6.47
2022-08-20T13:14:26.766Z,5.88
2022-08-20T13:17:17.583Z,5.60
2022-08-20T13:20:07.825Z,6.40
2022-08-20T13:22:55.291Z,6.68
2022-08-20T13:25:42.617Z,6.45
2022-08-20T13:28:30.240Z,5.60
2022-08-20T13:31:17.537Z,5.20
2022-08-20T13:34:05.863Z,5.00
2022-08-20T13:36:55.182Z,5.10
2022-08-20T13:39:43.176Z,4.05
2022-08-20T13:42:30.701Z,4.25
2022-08-20T13:45:18.016Z,4.50
2022-08-20T13:48:09.088Z,4.38
2022-08-20T13:51:01.929Z,4.50
2022-08-20T13:53:54.349Z,3.90
2022-08-20T13:56:41.704Z,3.45
2022-08-20T13:59:28.950Z,2.92
2022-08-20T14:04:52.336Z,3.10
2022-08-20T14:07:39.673Z,3.38
2022-08-20T14:10:31.214Z,3.40
2022-08-20T14:13:22.709Z,2.75
2022-08-20T14:16:21.382Z,2.92
2022-08-20T14:19:15.005Z,3.08
2022-08-20T14:22:02.253Z,3.10
2022-08-20T14:24:50.036Z,3.00
2022-08-20T14:27:37.870Z,2.75
2022-08-20T14:30:29.093Z,3.13
2022-08-20T14:33:16.453Z,3.17
2022-08-20T14:36:04.208Z,3.08
2022-08-20T14:38:51.500Z,2.60
2022-08-20T14:41:38.821Z,3.13
2022-08-20T14:44:26.080Z,2.75
2022-08-20T14:47:19.236Z,2.55
2022-08-20T14:50:13.261Z,3.28
2022-08-20T14:53:01.410Z,2.55
2022-08-20T14:55:48.681Z,2.97
2022-08-20T14:58:35.952Z,2.85
2022-08-20T15:01:23.277Z,2.88
2022-08-20T15:04:10.562Z,2.47
2022-08-20T15:06:57.839Z,2.75
2022-08-20T15:09:52.245Z,3.25
2022-08-20T15:12:39.536Z,2.58
2022-08-20T15:15:30.407Z,3.00
2022-08-20T15:18:18.430Z,2.50
2022-08-20T15:21:05.702Z,2.70
2022-08-20T15:23:57.626Z,2.70
2022-08-20T15:26:44.987Z,2.83
2022-08-20T15:29:32.249Z,2.60
2022-08-20T15:32:20.490Z,2.70
2022-08-20T15:35:09.905Z,2.22
2022-08-20T15:40:45.219Z,2.03
2022-08-20T15:43:33.666Z,2.30
2022-08-20T15:46:20.913Z,2.33
2022-08-20T15:49:12.342Z,2.60
2022-08-20T15:51:59.633Z,2.20
2022-08-20T15:54:47.870Z,2.40
2022-08-20T15:58:07.901Z,2.50
2022-08-20T16:01:24.341Z,2.25
2022-08-20T16:04:33.756Z,2.00
2022-08-20T16:07:54.543Z,2.33
2022-08-20T16:10:58.820Z,2.25
2022-08-20T16:13:53.164Z,2.03
2022-08-20T16:16:43.080Z,2.47
2022-08-20T16:19:56.070Z,2.03
2022-08-20T16:22:45.987Z,1.90
2022-08-20T16:26:02.245Z,2.25
2022-08-20T16:29:21.449Z,2.22
2022-08-20T16:32:30.896Z,2.20
2022-08-20T16:35:35.015Z,2.40
2022-08-20T16:38:36.353Z,2.22
2022-08-20T16:41:27.565Z,2.45
2022-08-20T16:44:29.749Z,2.60
2022-08-20T16:47:17.360Z,2.63
2022-08-20T16:50:20.359Z,2.50
2022-08-20T16:53:18.312Z,2.83
2022-08-20T16:56:05.671Z,3.00
2022-08-20T16:58:52.917Z,2.55
2022-08-20T17:01:40.366Z,3.20
2022-08-20T17:04:27.641Z,2.58
2022-08-20T17:07:29.647Z,3.15
2022-08-20T17:10:29.609Z,2.80
2022-08-20T17:13:16.825Z,2.70
2022-08-20T17:16:07.584Z,3.10
2022-08-20T17:19:27.775Z,2.72
2022-08-20T17:22:18.977Z,3.53
2022-08-20T17:25:19.669Z,3.03
2022-08-20T17:28:19.256Z,2.75
2022-08-20T17:31:06.774Z,3.00
2022-08-20T17:33:54.072Z,3.40
2022-08-20T17:36:51.571Z,3.15
2022-08-20T17:39:48.271Z,3.90
2022-08-20T17:42:51.209Z,3.45
2022-08-20T17:45:44.639Z,3.85
2022-08-20T17:48:46.774Z,3.35
2022-08-20T17:51:38.475Z,3.38
2022-08-20T17:54:39.066Z,3.55
2022-08-20T17:57:33.094Z,3.95
2022-08-20T18:00:25.539Z,3.58
2022-08-20T18:03:23.577Z,3.20
2022-08-20T18:06:19.945Z,3.90
2022-08-20T18:09:16.734Z,3.70
2022-08-20T18:12:21.754Z,3.80
2022-08-20T18:15:24.632Z,3.35
2022-08-20T18:18:37.344Z,3.75
2022-08-20T18:22:23.509Z,3.50
2022-08-20T18:25:32.640Z,3.40
2022-08-20T18:28:33.186Z,4.18
2022-08-20T18:31:50.486Z,3.35
2022-08-20T18:34:40.305Z,3.92
2022-08-20T18:37:27.641Z,3.60
2022-08-20T18:40:33.583Z,3.72
2022-08-20T18:43:31.447Z,3.22
2022-08-20T18:46:22.247Z,3.88
2022-08-20T18:49:12.761Z,3.80
2022-08-20T18:52:13.525Z,3.63
2022-08-20T18:55:05.055Z,3.70
2022-08-20T18:58:04.049Z,4.00
2022-08-20T19:00:53.120Z,3.90
2022-08-20T19:03:49.551Z,3.58
2022-08-20T19:06:44.262Z,4.13
2022-08-20T19:09:46.671Z,4.07
2022-08-20T19:12:46.018Z,4.43
2022-08-20T19:18:30.273Z,4.30
2022-08-20T19:21:24.831Z,3.85
2022-08-20T19:24:16.307Z,4.30
2022-08-20T19:27:07.366Z,3.83
2022-08-20T19:29:56.746Z,3.67
2022-08-20T19:32:52.732Z,4.60
2022-08-20T19:35:40.272Z,3.83
2022-08-20T19:38:27.529Z,4.10
2022-08-20T19:41:28.159Z,4.25
2022-08-20T19:44:42.729Z,4.25
2022-08-20T19:47:36.973Z,4.10
2022-08-20T19:50:30.014Z,4.32
2022-08-20T19:53:30.790Z,4.53
2022-08-20T19:56:21.166Z,3.80
2022-08-20T19:59:15.879Z,4.68
2022-08-20T20:02:05.984Z,4.68
2022-08-20T20:05:09.830Z,4.88
2022-08-20T20:07:58.487Z,4.68
2022-08-20T20:10:54.148Z,5.53
2022-08-20T20:13:44.331Z,4.85
2022-08-20T20:16:33.413Z,6.38
2022-08-20T20:19:26.909Z,7.38
2022-08-20T20:22:22.400Z,5.53
2022-08-20T20:25:12.691Z,5.55
2022-08-20T20:28:11.044Z,4.55
2022-08-20T20:31:10.659Z,5.35
2022-08-20T20:34:01.737Z,5.90
2022-08-20T20:36:59.610Z,5.97
2022-08-20T20:40:00.265Z,6.40
2022-08-20T20:43:06.216Z,5.78
2022-08-20T20:46:14.265Z,5.22
2022-08-20T20:49:27.683Z,5.22
2022-08-20T20:52:34.030Z,5.10
2022-08-20T20:55:22.846Z,5.25
2022-08-20T20:58:10.127Z,5.40
2022-08-20T21:00:57.394Z,5.35
2022-08-20T21:03:44.668Z,5.65
2022-08-20T21:06:31.913Z,5.90
2022-08-20T21:09:21.018Z,8.23
2022-08-20T21:12:10.057Z,7.75
2022-08-20T21:14:57.367Z,7.63
2022-08-20T21:17:44.657Z,7.53
2022-08-20T21:20:32.989Z,7.55
2022-08-20T21:23:20.345Z,7.20
2022-08-20T21:26:28.015Z,7.15
2022-08-20T21:29:24.067Z,7.47
2022-08-20T21:32:13.021Z,6.45
2022-08-20T21:35:02.831Z,6.18
2022-08-20T21:37:50.153Z,5.28
2022-08-20T21:40:37.624Z,5.65
2022-08-20T21:43:25.350Z,5.20
2022-08-20T21:46:12.741Z,4.90
2022-08-20T21:49:00.633Z,5.70
2022-08-20T21:51:50.719Z,4.85
2022-08-20T21:54:37.978Z,5.13
2022-08-20T21:57:30.950Z,5.57
2022-08-20T22:00:40.996Z,4.85
2022-08-20T22:03:35.047Z,4.97
2022-08-20T22:06:25.897Z,4.65
2022-08-20T22:09:13.857Z,5.10
2022-08-20T22:12:01.413Z,4.65
2022-08-20T22:14:49.323Z,5.47
2022-08-20T22:17:36.901Z,5.25
2022-08-20T22:20:24.193Z,5.57
2022-08-20T22:23:11.909Z,5.18
2022-08-20T22:25:59.256Z,5.50
2022-08-20T22:28:51.090Z,5.35
2022-08-20T22:31:41.513Z,6.25
2022-08-20T22:34:31.906Z,5.15
2022-08-20T22:37:19.286Z,5.43
2022-08-20T22:40:07.306Z,5.20
2022-08-20T22:42:54.754Z,5.32
2022-08-20T22:45:44.584Z,5.70
2022-08-20T22:48:32.113Z,5.30
2022-08-20T22:51:24.327Z,5.30
2022-08-20T22:54:16.492Z,5.63
2022-08-20T22:57:04.931Z,5.38
2022-08-20T22:59:56.219Z,6.53
2022-08-20T23:02:46.088Z,5.78
2022-08-20T23:05:35.544Z,5.28
2022-08-20T23:11:14.369Z,5.18
2022-08-20T23:14:01.630Z,5.00
2022-08-20T23:16:55.273Z,6.13
2022-08-20T23:19:46.822Z,5.05
2022-08-20T23:22:34.704Z,5.55
2022-08-20T23:25:21.968Z,5.82
2022-08-20T23:28:09.940Z,5.00
2022-08-20T23:30:57.242Z,5.80
2022-08-20T23:33:45.027Z,5.82
2022-08-20T23:36:32.573Z,6.82
2022-08-20T23:39:20.342Z,6.20
2022-08-20T23:42:07.657Z,5.60
2022-08-20T23:44:54.982Z,6.18
2022-08-20T23:47:43.102Z,5.68
2022-08-20T23:50:30.793Z,5.97
2022-08-20T23:53:18.071Z,6.30
2022-08-20T23:56:05.817Z,5.65
2022-08-20T23:58:53.317Z,5.47
